createdAt,value
2022-08-28T04:31:08.350Z,15.32
2022-08-28T04:33:36.351Z,17.25
2022-08-28T04:36:04.938Z,17.73
2022-08-28T04:38:31.933Z,16.67
2022-08-28T04:40:58.929Z,17.52
2022-08-28T04:43:26.055Z,17.45
2022-08-28T04:45:52.825Z,17.13
2022-08-28T04:48:19.697Z,14.88
2022-08-28T04:50:48.664Z,15.30
2022-08-28T04:53:18.194Z,15.45
2022-08-28T04:55:53.515Z,13.32
2022-08-28T04:58:23.694Z,13.77
2022-08-28T05:00:52.735Z,14.50
2022-08-28T05:03:19.786Z,14.70
2022-08-28T05:05:52.338Z,14.57
2022-08-28T05:08:22.126Z,15.27
2022-08-28T05:10:50.870Z,14.77
2022-08-28T05:13:18.474Z,15.38
2022-08-28T05:15:48.330Z,15.00
2022-08-28T05:18:16.247Z,14.15
2022-08-28T05:20:45.398Z,15.18
2022-08-28T05:23:13.489Z,13.25
2022-08-28T05:25:44.045Z,15.52
2022-08-28T05:28:12.555Z,17.00
2022-08-28T05:30:41.969Z,14.45
2022-08-28T05:33:09.868Z,16.08
2022-08-28T05:35:43.110Z,14.20
2022-08-28T05:38:11.174Z,14.98
2022-08-28T05:40:45.681Z,15.25
2022-08-28T05:43:14.555Z,18.25
2022-08-28T05:45:41.636Z,15.45
2022-08-28T05:48:08.842Z,18.08
2022-08-28T05:50:39.175Z,16.52
2022-08-28T05:53:10.484Z,16.42
2022-08-28T05:55:40.803Z,15.52
2022-08-28T05:58:25.981Z,15.23
2022-08-28T06:00:52.685Z,15.80
2022-08-28T06:03:19.462Z,15.35
2022-08-28T06:05:46.221Z,17.90
2022-08-28T06:08:13.360Z,15.93
2022-08-28T06:10:44.835Z,19.48
2022-08-28T06:13:15.062Z,17.30
2022-08-28T06:15:43.951Z,16.23
2022-08-28T06:18:12.548Z,16.15
2022-08-28T06:20:43.364Z,16.20
2022-08-28T06:23:12.130Z,15.80
2022-08-28T06:25:40.282Z,14.32
2022-08-28T06:28:07.795Z,15.88
2022-08-28T06:30:40.156Z,14.90
2022-08-28T06:33:09.613Z,13.57
2022-08-28T06:35:41.808Z,14.50
2022-08-28T06:38:09.488Z,16.42
2022-08-28T06:40:41.398Z,13.70
2022-08-28T06:43:08.807Z,13.85
2022-08-28T06:45:41.098Z,12.70
2022-08-28T06:48:12.587Z,12.35
2022-08-28T06:50:50.653Z,13.35
2022-08-28T06:53:20.397Z,14.82
2022-08-28T06:56:25.539Z,12.02
2022-08-28T06:58:52.679Z,12.57
2022-08-28T07:01:31.305Z,11.93
2022-08-28T07:04:01.877Z,12.27
2022-08-28T07:06:32.601Z,11.35
2022-08-28T07:08:59.352Z,11.57
2022-08-28T07:11:28.993Z,10.63
2022-08-28T07:13:57.194Z,11.98
2022-08-28T07:16:27.390Z,10.55
2022-08-28T07:18:54.548Z,11.60
2022-08-28T07:21:21.687Z,10.73
2022-08-28T07:23:48.985Z,11.40
2022-08-28T07:26:19.609Z,11.85
2022-08-28T07:28:46.798Z,12.00
2022-08-28T07:31:17.647Z,12.55
2022-08-28T07:33:44.874Z,10.32
2022-08-28T07:36:29.357Z,11.98
2022-08-28T07:38:58.846Z,9.98
2022-08-28T07:41:29.352Z,10.43
2022-08-28T07:44:14.569Z,10.02
2022-08-28T07:46:41.792Z,9.82
2022-08-28T07:49:09.415Z,9.63
2022-08-28T07:51:36.690Z,9.73
2022-08-28T07:54:04.390Z,9.52
2022-08-28T07:56:32.026Z,10.00
2022-08-28T07:59:00.070Z,10.95
2022-08-28T08:01:28.768Z,9.60
2022-08-28T08:04:01.921Z,9.02
2022-08-28T08:06:34.372Z,10.98
2022-08-28T08:09:02.216Z,8.55
2022-08-28T08:11:32.232Z,11.52
2022-08-28T08:14:05.616Z,9.30
2022-08-28T08:16:38.983Z,10.23
2022-08-28T08:19:09.772Z,10.07
2022-08-28T08:21:37.142Z,9.45
2022-08-28T08:24:04.368Z,10.15
2022-08-28T08:26:31.400Z,10.15
2022-08-28T08:28:58.904Z,9.32
2022-08-28T08:31:29.689Z,10.55
2022-08-28T08:34:01.430Z,10.75
2022-08-28T08:36:29.883Z,9.60
2022-08-28T08:38:59.426Z,8.35
2022-08-28T08:41:51.103Z,9.88
2022-08-28T08:44:40.308Z,9.07
2022-08-28T08:47:33.427Z,9.27
2022-08-28T08:50:00.326Z,8.23
2022-08-28T08:52:27.040Z,9.88
2022-08-28T08:55:21.259Z,8.73
2022-08-28T08:57:54.288Z,8.73
2022-08-28T09:00:21.466Z,9.68
2022-08-28T09:02:57.211Z,8.88
2022-08-28T09:05:53.299Z,7.55
2022-08-28T09:08:27.955Z,7.32
2022-08-28T09:11:31.612Z,8.70
2022-08-28T09:14:26.873Z,8.38
2022-08-28T09:16:57.052Z,6.63
2022-08-28T09:19:23.926Z,7.22
2022-08-28T09:21:52.337Z,7.65
2022-08-28T09:24:28.368Z,6.78
2022-08-28T09:26:58.229Z,7.07
2022-08-28T09:29:29.586Z,7.32
2022-08-28T09:31:57.682Z,6.00
2022-08-28T09:34:38.591Z,6.57
2022-08-28T09:37:08.403Z,6.20
2022-08-28T09:39:38.240Z,5.82
2022-08-28T09:42:43.673Z,7.63
2022-08-28T09:45:16.283Z,6.60
2022-08-28T09:47:48.844Z,8.65
2022-08-28T09:50:33.898Z,6.80
2022-08-28T09:53:21.335Z,9.70
2022-08-28T09:55:55.678Z,6.10
2022-08-28T09:58:28.086Z,5.95
2022-08-28T10:01:05.883Z,8.52
2022-08-28T10:03:49.763Z,5.47
2022-08-28T10:06:28.117Z,5.70
2022-08-28T10:09:24.733Z,5.03
2022-08-28T10:12:29.738Z,4.25
2022-08-28T10:15:30.447Z,7.82
2022-08-28T10:18:21.987Z,6.13
2022-08-28T10:21:01.164Z,5.60
2022-08-28T10:23:36.817Z,4.88
2022-08-28T10:26:16.468Z,5.10
2022-08-28T10:28:58.865Z,6.50
2022-08-28T10:31:58.937Z,6.38
2022-08-28T10:34:40.702Z,5.45
2022-08-28T10:37:36.614Z,4.63
2022-08-28T10:40:14.349Z,6.43
2022-08-28T10:42:51.024Z,4.55
2022-08-28T10:48:26.133Z,4.40
2022-08-28T10:51:11.909Z,4.40
2022-08-28T10:53:46.451Z,3.97
2022-08-28T10:56:17.712Z,5.03
2022-08-28T10:58:48.855Z,5.18
2022-08-28T11:01:29.698Z,4.15
2022-08-28T11:03:59.847Z,4.43
2022-08-28T11:06:51.010Z,3.47
2022-08-28T11:09:33.434Z,4.72
2022-08-28T11:12:20.107Z,5.43
2022-08-28T11:14:50.055Z,3.75
2022-08-28T11:17:27.615Z,4.13
2022-08-28T11:20:07.355Z,3.63
2022-08-28T11:22:34.234Z,5.00
2022-08-28T11:25:11.417Z,4.57
2022-08-28T11:27:39.957Z,11.30
2022-08-28T11:30:06.849Z,4.07
2022-08-28T11:32:51.657Z,5.32
2022-08-28T11:35:21.079Z,4.57
2022-08-28T11:37:53.149Z,4.15
2022-08-28T11:40:32.101Z,4.28
2022-08-28T11:43:17.372Z,5.18
2022-08-28T11:45:47.561Z,4.25
2022-08-28T11:48:36.104Z,4.85
2022-08-28T11:51:09.610Z,3.45
2022-08-28T11:53:39.323Z,3.05
2022-08-28T11:56:29.024Z,4.72
2022-08-28T11:59:22.487Z,5.10
2022-08-28T12:01:50.009Z,4.38
2022-08-28T12:04:40.780Z,3.67
2022-08-28T12:07:13.188Z,4.07
2022-08-28T12:09:42.157Z,4.28
2022-08-28T12:12:13.673Z,5.28
2022-08-28T12:14:40.832Z,4.28
2022-08-28T12:17:20.198Z,4.13
2022-08-28T12:19:56.375Z,3.72
2022-08-28T12:22:40.109Z,4.13
2022-08-28T12:25:22.513Z,3.88
2022-08-28T12:27:49.523Z,5.03
2022-08-28T12:30:28.546Z,3.88
2022-08-28T12:33:23.229Z,4.07
2022-08-28T12:35:50.334Z,4.20
2022-08-28T12:38:21.181Z,3.78
2022-08-28T12:40:50.730Z,4.20
2022-08-28T12:43:29.561Z,5.60
2022-08-28T12:46:19.683Z,4.35
2022-08-28T12:48:51.977Z,4.78
2022-08-28T12:51:34.531Z,4.13
2022-08-28T12:54:04.683Z,5.18
2022-08-28T12:56:37.947Z,4.80
2022-08-28T12:59:27.181Z,4.10
2022-08-28T13:01:54.680Z,4.85
2022-08-28T13:04:41.897Z,4.93
2022-08-28T13:07:15.733Z,4.05
2022-08-28T13:09:49.727Z,5.88
2022-08-28T13:12:20.498Z,4.75
2022-08-28T13:14:47.272Z,5.22
2022-08-28T13:17:17.390Z,4.68
2022-08-28T13:19:44.333Z,4.50
2022-08-28T13:22:32.994Z,4.43
2022-08-28T13:25:02.277Z,4.50
2022-08-28T13:27:29.639Z,4.90
2022-08-28T13:30:24.041Z,5.00
2022-08-28T13:33:16.480Z,4.38
2022-08-28T13:35:43.356Z,4.97
2022-08-28T13:38:12.587Z,4.82
2022-08-28T13:40:59.357Z,5.95
2022-08-28T13:43:30.177Z,6.28
2022-08-28T13:45:57.934Z,5.45
2022-08-28T13:48:26.780Z,5.88
2022-08-28T13:51:00.030Z,6.35
2022-08-28T13:53:26.833Z,5.60
2022-08-28T13:55:53.573Z,5.38
2022-08-28T13:58:20.405Z,6.28
2022-08-28T14:00:49.602Z,6.25
2022-08-28T14:03:35.797Z,5.32
2022-08-28T14:06:14.783Z,5.55
2022-08-28T14:08:43.700Z,5.60
2022-08-28T14:11:13.156Z,3.85
2022-08-28T14:13:47.349Z,5.68
2022-08-28T14:16:23.797Z,4.30
2022-08-28T14:18:52.570Z,4.20
2022-08-28T14:21:19.639Z,5.85
2022-08-28T14:23:46.630Z,4.03
2022-08-28T14:26:13.322Z,5.28
2022-08-28T14:28:40.090Z,4.45
2022-08-28T14:31:11.079Z,4.85
2022-08-28T14:33:40.953Z,4.18
2022-08-28T14:36:22.440Z,5.93
2022-08-28T14:38:53.833Z,6.15
2022-08-28T14:41:22.044Z,6.43
2022-08-28T14:43:49.667Z,4.50
2022-08-28T14:46:28.459Z,3.97
2022-08-28T14:48:57.424Z,4.25
2022-08-28T14:51:24.693Z,3.95
2022-08-28T14:53:52.244Z,4.15
2022-08-28T14:56:20.881Z,4.80
2022-08-28T14:58:47.976Z,5.60
2022-08-28T15:01:30.711Z,4.85
2022-08-28T15:04:09.682Z,4.43
2022-08-28T15:06:36.743Z,4.47
2022-08-28T15:09:03.921Z,4.38
2022-08-28T15:11:30.765Z,4.40
2022-08-28T15:13:58.504Z,5.50
2022-08-28T15:16:30.461Z,4.20
2022-08-28T15:18:59.404Z,4.05
2022-08-28T15:21:35.358Z,4.07
2022-08-28T15:24:03.661Z,6.22
2022-08-28T15:26:31.174Z,3.65
2022-08-28T15:29:02.372Z,5.18
2022-08-28T15:31:34.950Z,5.80
2022-08-28T15:34:13.425Z,6.20
2022-08-28T15:36:43.762Z,4.03
2022-08-28T15:39:30.055Z,3.80
2022-08-28T15:41:57.465Z,4.25
2022-08-28T15:44:24.468Z,4.03
2022-08-28T15:47:01.078Z,3.65
2022-08-28T15:49:30.525Z,5.18
2022-08-28T15:51:59.398Z,5.97
2022-08-28T15:54:26.514Z,4.65
2022-08-28T15:56:54.210Z,4.32
2022-08-28T15:59:21.940Z,4.82
2022-08-28T16:01:50.902Z,3.97
2022-08-28T16:04:18.208Z,3.53
2022-08-28T16:06:46.037Z,3.83
2022-08-28T16:09:13.697Z,3.88
2022-08-28T16:11:42.413Z,4.13
2022-08-28T16:14:09.647Z,3.53
2022-08-28T16:16:36.443Z,4.50
2022-08-28T16:19:04.344Z,3.70
2022-08-28T16:21:31.766Z,4.03
2022-08-28T16:23:58.805Z,3.33
2022-08-28T16:26:25.781Z,4.72
2022-08-28T16:28:52.589Z,3.60
2022-08-28T16:31:20.759Z,2.90
2022-08-28T16:33:49.064Z,4.18
2022-08-28T16:36:17.129Z,4.05
2022-08-28T16:38:47.875Z,3.58
2022-08-28T16:41:24.504Z,4.95
2022-08-28T16:43:54.558Z,5.00
2022-08-28T16:46:25.199Z,4.00
2022-08-28T16:48:53.082Z,5.35
2022-08-28T16:51:20.801Z,4.32
2022-08-28T16:53:48.293Z,4.38
2022-08-28T16:56:17.492Z,4.95
2022-08-28T16:58:45.301Z,4.50
2022-08-28T17:01:13.323Z,4.60
2022-08-28T17:03:40.928Z,5.45
2022-08-28T17:06:18.152Z,5.32
2022-08-28T17:08:45.093Z,4.25
2022-08-28T17:11:12.897Z,4.43
2022-08-28T17:13:40.213Z,3.67
2022-08-28T17:16:08.096Z,5.22
2022-08-28T17:18:35.933Z,5.93
2022-08-28T17:21:21.393Z,4.88
2022-08-28T17:23:48.330Z,4.05
2022-08-28T17:26:15.445Z,4.50
2022-08-28T17:28:43.277Z,6.25
2022-08-28T17:31:11.062Z,4.85
2022-08-28T17:33:42.671Z,4.63
2022-08-28T17:36:17.081Z,4.63
2022-08-28T17:39:00.230Z,5.07
2022-08-28T17:41:27.372Z,4.85
2022-08-28T17:43:54.083Z,5.22
2022-08-28T17:46:20.940Z,6.25
2022-08-28T17:48:54.369Z,4.75
2022-08-28T17:51:23.494Z,6.18
2022-08-28T17:54:10.172Z,6.03
2022-08-28T17:56:36.932Z,6.57
2022-08-28T17:59:04.389Z,6.32
2022-08-28T18:01:31.195Z,6.20
2022-08-28T18:03:58.204Z,4.80
2022-08-28T18:06:25.049Z,4.47
2022-08-28T18:08:51.973Z,6.43
2022-08-28T18:11:19.238Z,4.55
2022-08-28T18:13:46.717Z,4.32
2022-08-28T18:16:13.677Z,4.13
2022-08-28T18:18:41.450Z,5.75
2022-08-28T18:21:10.586Z,5.65
2022-08-28T18:23:37.594Z,4.90
2022-08-28T18:26:04.304Z,4.97
2022-08-28T18:28:32.310Z,5.63
2022-08-28T18:31:00.724Z,7.80
2022-08-28T18:33:28.303Z,5.10
2022-08-28T18:35:55.154Z,5.63
2022-08-28T18:38:25.513Z,7.18
2022-08-28T18:40:52.324Z,5.78
2022-08-28T18:43:21.134Z,4.97
2022-08-28T18:45:48.569Z,5.38
2022-08-28T18:48:15.480Z,5.85
2022-08-28T18:50:46.325Z,7.07
2022-08-28T18:53:14.678Z,5.43
2022-08-28T18:55:41.815Z,6.45
2022-08-28T18:58:11.124Z,6.10
2022-08-28T19:03:09.230Z,6.57
2022-08-28T19:05:37.238Z,6.63
2022-08-28T19:08:04.266Z,6.28
2022-08-28T19:10:34.484Z,5.65
2022-08-28T19:13:02.755Z,6.75
2022-08-28T19:15:31.210Z,6.75
2022-08-28T19:18:00.325Z,6.60
2022-08-28T19:20:28.095Z,6.22
2022-08-28T19:22:55.849Z,5.07
2022-08-28T19:25:28.247Z,6.80
2022-08-28T19:28:00.151Z,6.47
2022-08-28T19:30:31.093Z,6.65
2022-08-28T19:32:57.794Z,6.25
2022-08-28T19:35:24.849Z,7.47
2022-08-28T19:37:53.094Z,8.98
2022-08-28T19:40:20.550Z,6.00
2022-08-28T19:42:48.089Z,6.35
2022-08-28T19:45:15.235Z,8.15
2022-08-28T19:47:42.151Z,6.70
2022-08-28T19:50:10.838Z,6.30
2022-08-28T19:52:38.111Z,6.28
2022-08-28T19:55:06.641Z,7.18
2022-08-28T19:57:34.273Z,6.80
2022-08-28T20:00:02.185Z,7.43
2022-08-28T20:02:29.254Z,8.45
2022-08-28T20:04:56.118Z,7.28
2022-08-28T20:07:24.809Z,9.43
2022-08-28T20:09:52.335Z,8.55
2022-08-28T20:12:19.311Z,7.15
2022-08-28T20:14:46.204Z,8.02
2022-08-28T20:17:13.935Z,7.13
2022-08-28T20:19:41.221Z,8.05
2022-08-28T20:22:08.115Z,7.45
2022-08-28T20:24:35.219Z,6.75
2022-08-28T20:27:02.229Z,8.20
2022-08-28T20:29:29.278Z,7.38
2022-08-28T20:31:56.138Z,7.40
2022-08-28T20:34:23.590Z,6.97
2022-08-28T20:36:50.722Z,7.30
2022-08-28T20:39:17.808Z,7.28
2022-08-28T20:41:45.904Z,6.25
2022-08-28T20:44:15.439Z,7.30
2022-08-28T20:46:42.938Z,6.50
2022-08-28T20:49:14.085Z,8.95
2022-08-28T20:51:58.653Z,7.13
2022-08-28T20:54:32.807Z,7.20
2022-08-28T20:57:02.455Z,7.20
2022-08-28T20:59:37.143Z,9.65
2022-08-28T21:02:09.171Z,7.72
2022-08-28T21:04:38.857Z,8.48
2022-08-28T21:07:06.406Z,7.32
2022-08-28T21:09:40.977Z,7.57
2022-08-28T21:12:20.437Z,6.90
2022-08-28T21:14:51.680Z,6.80
2022-08-28T21:17:20.803Z,7.38
2022-08-28T21:19:55.524Z,6.57
2022-08-28T21:22:22.585Z,7.82
2022-08-28T21:24:49.325Z,9.60
2022-08-28T21:27:16.061Z,8.00
2022-08-28T21:29:45.999Z,7.95
2022-08-28T21:32:13.190Z,7.07
2022-08-28T21:34:40.458Z,8.80
2022-08-28T21:37:07.366Z,8.10
2022-08-28T21:39:35.238Z,8.18
2022-08-28T21:42:01.983Z,7.78
2022-08-28T21:44:28.989Z,9.02
2022-08-28T21:46:55.726Z,7.60
2022-08-28T21:49:23.031Z,7.80
2022-08-28T21:51:50.444Z,8.20
2022-08-28T21:54:18.189Z,7.82
2022-08-28T21:56:45.505Z,7.00
2022-08-28T21:59:12.814Z,8.65
2022-08-28T22:01:41.244Z,10.93
2022-08-28T22:04:08.058Z,8.10
2022-08-28T22:06:34.946Z,8.90
2022-08-28T22:09:03.286Z,7.68
2022-08-28T22:11:30.931Z,9.85
2022-08-28T22:13:57.912Z,8.48
2022-08-28T22:16:25.685Z,8.80
2022-08-28T22:18:52.952Z,9.77
2022-08-28T22:21:42.414Z,8.65
2022-08-28T22:24:10.368Z,8.05
2022-08-28T22:26:37.997Z,7.32
2022-08-28T22:29:05.841Z,7.85
2022-08-28T22:31:32.569Z,8.73
2022-08-28T22:33:59.344Z,7.55
2022-08-28T22:36:29.217Z,7.82
2022-08-28T22:38:56.380Z,9.07
2022-08-28T22:41:24.343Z,7.55
2022-08-28T22:43:53.398Z,8.52
2022-08-28T22:46:20.620Z,7.90
2022-08-28T22:48:48.005Z,8.85
2022-08-28T22:51:18.482Z,9.77
2022-08-28T22:53:46.746Z,9.48
2022-08-28T22:56:14.611Z,10.02
2022-08-28T22:58:41.593Z,8.77
